Time;durP1;ratioP1;P1;durP2;ratioP2;P2;SDS_P1;SDS_P2;PMS_P1;PMS_P2;Temp;Humidity;BMP_temperature;BMP_pressure;BME280_temperature;BME280_humidity;BME280_pressure;Samples;Min_cycle;Max_cycle;Signal;HPM_P1;HPM_P2
2024/03/01 00:00:19;;;;;;;14.47;10.03;;;8.90;99.90;;;;;;5033011;28;20191;-71
2024/03/01 00:02:44;;;;;;;13.20;9.83;;;8.90;99.90;;;;;;5034191;28;20433;-73
2024/03/01 00:05:10;;;;;;;15.00;10.67;;;8.90;99.90;;;;;;5035048;28;20479;-69
2024/03/01 00:07:35;;;;;;;14.50;9.70;;;8.90;99.90;;;;;;5032982;28;20255;-69
2024/03/01 00:10:01;;;;;;;14.50;10.60;;;9.00;99.90;;;;;;5034197;28;20186;-73
2024/03/01 00:12:27;;;;;;;13.60;10.87;;;9.00;99.90;;;;;;5034824;28;20265;-68
2024/03/01 00:14:53;;;;;;;14.40;10.17;;;9.00;99.90;;;;;;5034341;28;20237;-68
2024/03/01 00:17:18;;;;;;;14.53;10.30;;;9.00;99.90;;;;;;5034430;28;20190;-72
2024/03/01 00:19:44;;;;;;;14.67;10.63;;;9.10;99.90;;;;;;5034541;28;20194;-74
2024/03/01 00:22:10;;;;;;;14.40;10.37;;;9.10;99.90;;;;;;5034712;28;20279;-73
2024/03/01 00:24:35;;;;;;;15.00;11.67;;;9.10;99.90;;;;;;5032995;28;20188;-68
2024/03/01 00:27:01;;;;;;;15.93;11.27;;;9.10;99.90;;;;;;5033403;28;20189;-69
2024/03/01 00:29:26;;;;;;;14.50;10.73;;;9.10;99.90;;;;;;5033871;28;20177;-71
2024/03/01 00:31:53;;;;;;;17.87;11.30;;;9.10;99.90;;;;;;5034939;28;20187;-68
2024/03/01 00:34:18;;;;;;;15.03;10.80;;;9.00;99.90;;;;;;5033565;28;20622;-69
2024/03/01 00:36:44;;;;;;;16.80;11.00;;;9.10;99.90;;;;;;5034702;28;20456;-70
2024/03/01 00:39:10;;;;;;;16.60;11.27;;;9.00;99.90;;;;;;5034253;28;20185;-72
2024/03/01 00:41:36;;;;;;;18.13;11.97;;;9.00;99.90;;;;;;5034865;28;20189;-68
2024/03/01 00:44:01;;;;;;;18.37;12.50;;;9.00;99.90;;;;;;5017124;28;20428;-71
2024/03/01 00:46:27;;;;;;;21.37;12.33;;;9.00;99.90;;;;;;5033767;28;20187;-67
2024/03/01 00:48:54;;;;;;;15.87;11.97;;;9.00;99.90;;;;;;5032882;28;20194;-73
2024/03/01 00:51:20;;;;;;;16.20;11.43;;;9.00;99.90;;;;;;5034803;28;20443;-77
2024/03/01 00:53:46;;;;;;;16.63;12.43;;;9.00;99.90;;;;;;5032703;28;20469;-74
2024/03/01 00:56:12;;;;;;;16.47;12.90;;;9.00;99.90;;;;;;5037376;28;20931;-68
2024/03/01 00:58:38;;;;;;;17.93;12.63;;;9.00;99.90;;;;;;5040321;28;20897;-73
2024/03/01 01:01:03;;;;;;;17.57;11.73;;;9.00;99.90;;;;;;5041148;28;20833;-69
2024/03/01 01:03:30;;;;;;;18.70;12.90;;;9.00;99.90;;;;;;5040697;28;21030;-71
2024/03/01 01:05:55;;;;;;;16.20;11.67;;;9.10;99.90;;;;;;5041055;28;20240;-70
2024/03/01 01:08:21;;;;;;;17.27;12.67;;;9.10;99.90;;;;;;5040729;28;20448;-69
2024/03/01 01:10:47;;;;;;;18.03;12.27;;;9.10;99.90;;;;;;5040083;28;20189;-73
2024/03/01 01:13:13;;;;;;;15.73;11.40;;;9.00;99.90;;;;;;5040349;28;20587;-73
2024/03/01 01:15:38;;;;;;;16.43;12.10;;;9.10;99.90;;;;;;5040745;28;20180;-73
2024/03/01 01:18:04;;;;;;;17.53;12.47;;;9.00;99.90;;;;;;5041435;28;20185;-75
2024/03/01 01:20:30;;;;;;;17.10;11.63;;;9.00;99.90;;;;;;5040820;28;20554;-71
2024/03/01 01:22:55;;;;;;;18.23;11.97;;;9.00;99.90;;;;;;5040580;28;20174;-70
2024/03/01 01:25:21;;;;;;;14.53;11.80;;;9.00;99.90;;;;;;5040718;28;21017;-71
2024/03/01 01:27:47;;;;;;;17.90;11.70;;;8.90;99.90;;;;;;5039531;28;20190;-70
2024/03/01 01:30:13;;;;;;;17.17;11.93;;;8.90;99.90;;;;;;5040161;28;20217;-69
2024/03/01 01:32:38;;;;;;;15.30;11.53;;;8.90;99.90;;;;;;5040462;28;20177;-71
2024/03/01 01:35:05;;;;;;;16.83;11.50;;;8.90;99.90;;;;;;5040527;28;20214;-73
2024/03/01 01:37:30;;;;;;;17.27;11.97;;;8.90;99.90;;;;;;5040773;28;20255;-70
2024/03/01 01:39:56;;;;;;;16.50;11.93;;;8.80;99.90;;;;;;5039352;28;20429;-73
2024/03/01 01:42:22;;;;;;;17.00;12.37;;;8.80;99.90;;;;;;5039516;28;20197;-74
2024/03/01 01:44:48;;;;;;;16.03;12.40;;;8.80;99.90;;;;;;5040842;28;21087;-73
2024/03/01 01:47:14;;;;;;;17.50;12.03;;;8.80;99.90;;;;;;5039742;28;20214;-72
2024/03/01 01:49:40;;;;;;;19.80;12.30;;;8.80;99.90;;;;;;5040350;28;20182;-68
2024/03/01 01:52:07;;;;;;;16.10;12.53;;;8.70;99.90;;;;;;5039463;28;20495;-72
2024/03/01 01:54:33;;;;;;;15.67;11.60;;;8.70;99.90;;;;;;5039951;28;20893;-70
2024/03/01 01:56:59;;;;;;;15.10;10.83;;;8.70;99.90;;;;;;5039963;28;20426;-75
2024/03/01 01:59:26;;;;;;;14.40;12.13;;;8.60;99.90;;;;;;5039933;28;20425;-69
2024/03/01 02:01:51;;;;;;;16.90;11.97;;;8.60;99.90;;;;;;5039852;28;20427;-72
2024/03/01 02:04:18;;;;;;;15.40;11.67;;;8.50;99.90;;;;;;5039910;28;20428;-69
2024/03/01 02:06:44;;;;;;;15.00;11.27;;;8.50;99.90;;;;;;5039113;28;20512;-74
2024/03/01 02:09:17;;;;;;;12.73;10.60;;;8.60;99.90;;;;;;5037255;28;20832;-70
2024/03/01 02:11:44;;;;;;;20.47;11.97;;;8.50;99.90;;;;;;5035771;28;20432;-75
2024/03/01 02:14:10;;;;;;;15.07;11.17;;;8.50;99.90;;;;;;5037305;28;20483;-72
2024/03/01 02:16:36;;;;;;;15.53;12.10;;;8.50;99.90;;;;;;5037965;28;20420;-76
2024/03/01 02:19:04;;;;;;;16.67;12.33;;;8.50;99.90;;;;;;5038460;28;20190;-69
2024/03/01 02:21:35;;;;;;;18.03;11.83;;;8.50;99.90;;;;;;5037554;28;20648;-74
2024/03/01 02:24:03;;;;;;;16.67;11.10;;;8.50;99.90;;;;;;5038209;28;20449;-69
2024/03/01 02:26:30;;;;;;;16.00;11.30;;;8.50;99.90;;;;;;5037450;28;20440;-69
2024/03/01 02:28:56;;;;;;;15.60;11.83;;;8.50;99.90;;;;;;5037997;28;20429;-69
2024/03/01 02:31:22;;;;;;;19.17;11.90;;;8.50;99.90;;;;;;5037117;28;20464;-74
2024/03/01 02:33:48;;;;;;;16.73;12.40;;;8.40;99.90;;;;;;5036884;28;20474;-75
2024/03/01 02:36:14;;;;;;;16.93;11.60;;;8.50;99.90;;;;;;5037448;28;20931;-76
2024/03/01 02:38:40;;;;;;;16.80;12.17;;;8.50;99.90;;;;;;5037887;28;20186;-70
2024/03/01 02:41:06;;;;;;;18.27;12.33;;;8.40;99.90;;;;;;5037025;28;20178;-77
2024/03/01 02:43:32;;;;;;;19.07;11.93;;;8.40;99.90;;;;;;5037455;28;21036;-74
2024/03/01 02:45:57;;;;;;;17.87;12.53;;;8.40;99.90;;;;;;5036450;28;20178;-72
2024/03/01 02:48:23;;;;;;;18.67;12.83;;;8.40;99.90;;;;;;5035327;28;20295;-76
2024/03/01 02:50:49;;;;;;;19.30;14.03;;;8.40;99.90;;;;;;5037478;28;20240;-74
2024/03/01 02:53:14;;;;;;;15.77;11.80;;;8.30;99.90;;;;;;5037024;28;20186;-70
2024/03/01 02:55:40;;;;;;;18.27;12.23;;;8.30;99.90;;;;;;5037641;28;20594;-73
2024/03/01 02:58:05;;;;;;;18.67;12.80;;;8.30;99.90;;;;;;5035424;28;20200;-71
2024/03/01 03:00:31;;;;;;;20.50;13.47;;;8.30;99.90;;;;;;5037710;28;20273;-68
2024/03/01 03:02:57;;;;;;;19.00;13.57;;;8.30;99.90;;;;;;5036764;28;20189;-71
2024/03/01 03:05:22;;;;;;;19.27;13.37;;;8.30;99.90;;;;;;5037631;28;20229;-72
2024/03/01 03:07:48;;;;;;;19.80;13.20;;;8.30;99.90;;;;;;5035010;28;20516;-69
2024/03/01 03:10:17;;;;;;;16.30;12.10;;;8.20;99.90;;;;;;5037154;28;20264;-70
2024/03/01 03:12:44;;;;;;;18.90;13.20;;;8.20;99.90;;;;;;5036102;28;20528;-70
2024/03/01 03:15:10;;;;;;;19.10;12.70;;;8.20;99.90;;;;;;5036514;28;20857;-71
2024/03/01 03:17:36;;;;;;;17.20;12.77;;;8.20;99.90;;;;;;5036939;28;20425;-72
2024/03/01 03:20:09;;;;;;;18.27;13.13;;;8.10;99.90;;;;;;5035401;28;20421;-70
2024/03/01 03:22:39;;;;;;;20.63;13.20;;;8.10;99.90;;;;;;5036531;28;20945;-70
2024/03/01 03:25:05;;;;;;;17.70;12.40;;;8.20;99.90;;;;;;5035142;28;20512;-72
2024/03/01 03:27:32;;;;;;;16.40;12.30;;;8.20;99.90;;;;;;5036900;28;20435;-75
2024/03/01 03:29:58;;;;;;;20.60;13.00;;;8.20;99.90;;;;;;5035616;28;20491;-72
2024/03/01 03:32:23;;;;;;;19.57;12.97;;;8.20;99.90;;;;;;5035497;28;20459;-72
2024/03/01 03:34:49;;;;;;;20.37;13.30;;;8.20;99.90;;;;;;5068319;28;20494;-70
2024/03/01 03:37:15;;;;;;;17.73;12.37;;;8.10;99.90;;;;;;5035868;28;20197;-74
2024/03/01 03:39:40;;;;;;;19.97;12.77;;;8.10;99.90;;;;;;5036993;28;20765;-74
2024/03/01 03:42:06;;;;;;;17.47;13.13;;;8.10;99.90;;;;;;5035998;28;20201;-70
2024/03/01 03:44:32;;;;;;;19.07;12.07;;;8.10;99.90;;;;;;5036833;28;20981;-68
2024/03/01 03:46:58;;;;;;;16.93;11.10;;;8.00;99.90;;;;;;5035636;28;20214;-66
2024/03/01 03:49:24;;;;;;;20.07;11.93;;;8.10;99.90;;;;;;5035682;28;20195;-73
2024/03/01 03:51:49;;;;;;;17.70;12.40;;;8.00;99.90;;;;;;5035873;28;20236;-73
2024/03/01 03:54:17;;;;;;;17.57;12.17;;;8.00;99.90;;;;;;5035517;28;20910;-71
2024/03/01 03:56:43;;;;;;;21.67;13.57;;;8.00;99.90;;;;;;5036216;28;20192;-70
2024/03/01 03:59:09;;;;;;;19.07;12.57;;;8.00;99.90;;;;;;5034862;28;20993;-69
2024/03/01 04:01:35;;;;;;;18.57;12.47;;;7.90;99.90;;;;;;5036701;28;20934;-68
2024/03/01 04:04:01;;;;;;;16.00;11.57;;;7.90;99.90;;;;;;5035429;28;20420;-74
2024/03/01 04:06:27;;;;;;;16.67;11.50;;;7.90;99.90;;;;;;5035823;28;20178;-74
2024/03/01 04:08:52;;;;;;;16.63;11.73;;;8.00;99.90;;;;;;5036086;28;20494;-72
2024/03/01 04:11:18;;;;;;;18.50;11.77;;;7.90;99.90;;;;;;5035569;28;20194;-70
2024/03/01 04:13:44;;;;;;;17.50;11.97;;;7.90;99.90;;;;;;5033656;28;20306;-69
2024/03/01 04:16:09;;;;;;;15.20;11.23;;;7.90;99.90;;;;;;5033685;28;20552;-72
2024/03/01 04:18:37;;;;;;;19.93;11.97;;;7.90;99.90;;;;;;5034234;28;20285;-69
2024/03/01 04:21:07;;;;;;;17.80;12.57;;;7.90;99.90;;;;;;5034026;28;20212;-70
2024/03/01 04:23:33;;;;;;;15.73;11.50;;;7.90;99.90;;;;;;5034366;28;20459;-67
2024/03/01 04:25:58;;;;;;;18.10;12.17;;;7.90;99.90;;;;;;5033735;28;20429;-70
2024/03/01 04:28:28;;;;;;;16.00;11.37;;;7.90;99.90;;;;;;5033130;28;20440;-70
2024/03/01 04:30:54;;;;;;;15.13;11.27;;;7.90;99.90;;;;;;5034429;28;20240;-74
2024/03/01 04:33:20;;;;;;;17.63;11.70;;;7.90;99.90;;;;;;5033006;28;20423;-75
2024/03/01 04:35:46;;;;;;;17.47;12.33;;;7.90;99.90;;;;;;5034316;28;20495;-73
2024/03/01 04:38:12;;;;;;;16.90;11.77;;;7.90;99.90;;;;;;5032010;28;20432;-70
2024/03/01 04:40:38;;;;;;;17.63;12.27;;;7.90;99.90;;;;;;5033539;28;21153;-72
2024/03/01 04:43:08;;;;;;;18.43;11.20;;;8.00;99.90;;;;;;5031372;28;20421;-67
2024/03/01 04:45:34;;;;;;;18.00;11.90;;;8.00;99.90;;;;;;5033151;28;20185;-72
2024/03/01 04:48:00;;;;;;;16.87;11.97;;;8.00;99.90;;;;;;5033124;28;20499;-73
2024/03/01 04:50:26;;;;;;;15.60;11.37;;;8.00;99.90;;;;;;5033859;28;20265;-69
2024/03/01 04:52:52;;;;;;;15.13;10.60;;;8.00;99.90;;;;;;5034225;28;20181;-69
2024/03/01 04:55:19;;;;;;;15.10;10.83;;;8.00;99.90;;;;;;5032979;28;20476;-73
2024/03/01 04:57:44;;;;;;;16.13;10.37;;;8.00;99.90;;;;;;5033236;28;20182;-72
2024/03/01 05:00:13;;;;;;;14.33;9.83;;;8.00;99.90;;;;;;5032803;28;20438;-72
2024/03/01 05:02:43;;;;;;;16.00;10.93;;;8.00;99.90;;;;;;5032728;28;20247;-68
2024/03/01 05:05:14;;;;;;;15.30;10.33;;;8.00;99.90;;;;;;5032887;28;20431;-72
2024/03/01 05:07:40;;;;;;;12.40;9.70;;;8.00;99.90;;;;;;5047975;28;20999;-72
2024/03/01 05:10:10;;;;;;;15.53;10.50;;;8.00;99.90;;;;;;5033619;28;20429;-75
2024/03/01 05:12:36;;;;;;;14.17;10.03;;;8.00;99.90;;;;;;5032964;28;20444;-69
2024/03/01 05:15:04;;;;;;;12.90;9.13;;;8.10;99.90;;;;;;5033134;28;20499;-71
2024/03/01 05:17:32;;;;;;;14.33;9.33;;;8.10;99.90;;;;;;5033221;28;20484;-72
2024/03/01 05:19:58;;;;;;;13.17;9.60;;;8.10;99.90;;;;;;5033520;28;20914;-74
2024/03/01 05:22:24;;;;;;;11.90;9.60;;;8.10;99.90;;;;;;5033543;28;20437;-70
2024/03/01 05:24:50;;;;;;;11.80;9.03;;;8.20;99.90;;;;;;5033640;28;20889;-72
2024/03/01 05:27:15;;;;;;;12.10;9.23;;;8.20;99.90;;;;;;5032944;28;20193;-71
2024/03/01 05:29:42;;;;;;;13.70;11.03;;;8.30;99.90;;;;;;5033644;28;20260;-76
2024/03/01 05:32:08;;;;;;;12.27;9.17;;;8.20;99.90;;;;;;5033421;28;20190;-73
2024/03/01 05:34:34;;;;;;;11.80;9.27;;;8.30;99.90;;;;;;5034226;28;20524;-69
2024/03/01 05:37:00;;;;;;;11.97;9.37;;;8.30;99.90;;;;;;5032672;28;20905;-75
2024/03/01 05:39:25;;;;;;;11.40;7.80;;;8.30;99.90;;;;;;5033852;28;20443;-72
2024/03/01 05:41:51;;;;;;;13.77;8.50;;;8.30;99.90;;;;;;5033670;28;20264;-71
2024/03/01 05:44:17;;;;;;;10.63;8.23;;;8.30;99.90;;;;;;5035690;28;20200;-75
2024/03/01 05:46:43;;;;;;;11.97;8.70;;;8.30;99.90;;;;;;5036875;28;20177;-74
2024/03/01 05:49:09;;;;;;;11.80;8.33;;;8.40;99.90;;;;;;5036776;28;20428;-72
2024/03/01 05:51:36;;;;;;;14.13;9.70;;;8.30;99.90;;;;;;5017474;28;21247;-73
2024/03/01 05:54:03;;;;;;;12.13;8.97;;;8.30;99.90;;;;;;5036541;28;20515;-68
2024/03/01 05:56:29;;;;;;;11.30;9.30;;;8.40;99.90;;;;;;5032388;28;20445;-73
2024/03/01 05:58:55;;;;;;;12.30;8.90;;;8.40;99.90;;;;;;5018629;28;20432;-66
2024/03/01 06:01:22;;;;;;;11.00;8.27;;;8.50;99.90;;;;;;5033874;28;20532;-72
2024/03/01 06:03:47;;;;;;;11.53;8.40;;;8.50;99.90;;;;;;5035452;28;20471;-72
2024/03/01 06:06:15;;;;;;;12.33;8.90;;;8.50;99.90;;;;;;5035672;28;20988;-69
2024/03/01 06:08:41;;;;;;;12.77;9.20;;;8.50;99.90;;;;;;5035991;28;20240;-73
2024/03/01 06:11:10;;;;;;;10.53;8.03;;;8.60;99.90;;;;;;5036537;28;20941;-73
2024/03/01 06:13:37;;;;;;;11.83;8.90;;;8.60;99.90;;;;;;5036345;28;20432;-74
2024/03/01 06:16:02;;;;;;;16.57;9.80;;;8.60;99.90;;;;;;5036395;28;20528;-70
2024/03/01 06:18:28;;;;;;;11.17;8.30;;;8.60;99.90;;;;;;5035872;28;20527;-75
2024/03/01 06:20:54;;;;;;;10.50;8.30;;;8.60;99.90;;;;;;5035946;28;20174;-71
2024/03/01 06:23:19;;;;;;;13.10;9.13;;;8.60;99.90;;;;;;5036775;28;20816;-66
2024/03/01 06:25:45;;;;;;;12.83;9.87;;;8.60;99.90;;;;;;5035625;28;20182;-72
2024/03/01 06:28:11;;;;;;;11.80;9.20;;;8.70;99.90;;;;;;5036313;28;20815;-68
2024/03/01 06:30:36;;;;;;;13.40;9.40;;;8.70;99.90;;;;;;5036394;28;20214;-69
2024/03/01 06:33:02;;;;;;;11.23;8.80;;;8.60;99.90;;;;;;5035614;28;20274;-69
2024/03/01 06:35:28;;;;;;;14.90;9.00;;;8.70;99.90;;;;;;5036177;28;20236;-70
2024/03/01 06:37:54;;;;;;;12.53;9.13;;;8.70;99.90;;;;;;5035428;28;20233;-72
2024/03/01 06:40:20;;;;;;;12.63;8.90;;;8.60;99.90;;;;;;5036351;28;20186;-67
2024/03/01 06:42:45;;;;;;;11.80;9.07;;;8.60;99.90;;;;;;5035155;28;20802;-70
2024/03/01 06:45:12;;;;;;;11.43;7.97;;;8.60;99.90;;;;;;5036098;28;20217;-71
2024/03/01 06:47:40;;;;;;;12.07;8.90;;;8.70;99.90;;;;;;5035382;28;20367;-74
2024/03/01 06:50:08;;;;;;;11.10;9.00;;;8.70;99.90;;;;;;5034125;28;20810;-70
2024/03/01 06:52:35;;;;;;;11.87;9.20;;;8.70;99.90;;;;;;5034375;28;20524;-67
2024/03/01 06:55:01;;;;;;;14.20;9.03;;;8.80;99.90;;;;;;5034087;28;20477;-69
2024/03/01 06:57:27;;;;;;;11.40;8.37;;;8.80;99.90;;;;;;5035732;28;20464;-70
2024/03/01 06:59:52;;;;;;;9.83;7.60;;;8.90;99.90;;;;;;5035275;28;20982;-74
2024/03/01 07:02:18;;;;;;;11.27;8.33;;;8.90;99.90;;;;;;5035101;28;20305;-71
2024/03/01 07:04:44;;;;;;;12.10;8.53;;;8.90;99.90;;;;;;5034156;28;20606;-69
2024/03/01 07:07:10;;;;;;;12.87;8.97;;;9.00;99.90;;;;;;5034883;28;20580;-70
2024/03/01 07:09:36;;;;;;;11.60;8.43;;;9.00;99.90;;;;;;5034678;28;20771;-72
2024/03/01 07:12:02;;;;;;;10.37;8.27;;;9.00;99.90;;;;;;5033199;28;20190;-68
2024/03/01 07:14:28;;;;;;;11.80;9.00;;;9.00;99.90;;;;;;5033038;28;20229;-69
2024/03/01 07:16:53;;;;;;;9.40;7.80;;;9.00;99.90;;;;;;5031677;28;20438;-75
2024/03/01 07:19:19;;;;;;;11.50;8.90;;;9.00;99.90;;;;;;5030093;28;20327;-68
2024/03/01 07:21:45;;;;;;;12.33;9.10;;;8.90;99.90;;;;;;5033047;28;20742;-73
2024/03/01 07:24:10;;;;;;;10.43;8.50;;;8.90;99.90;;;;;;5035229;28;20186;-66
2024/03/01 07:26:36;;;;;;;10.60;8.37;;;9.00;99.90;;;;;;5032771;28;20185;-72
2024/03/01 07:29:02;;;;;;;10.87;8.90;;;8.90;99.90;;;;;;5033391;28;20293;-74
2024/03/01 07:31:28;;;;;;;12.60;9.33;;;8.90;99.90;;;;;;5034482;28;20178;-70
2024/03/01 07:33:55;;;;;;;11.57;9.50;;;8.90;99.90;;;;;;5034237;28;20576;-69
2024/03/01 07:36:21;;;;;;;14.10;11.03;;;8.90;99.90;;;;;;5032743;28;20915;-67
2024/03/01 07:38:47;;;;;;;13.90;10.07;;;8.90;99.90;;;;;;5032478;28;20428;-71
2024/03/01 07:41:13;;;;;;;11.83;9.77;;;8.90;99.90;;;;;;5034716;28;20680;-71
2024/03/01 07:43:38;;;;;;;12.30;10.90;;;9.00;99.90;;;;;;5034143;28;20703;-75
2024/03/01 07:46:05;;;;;;;12.80;10.80;;;9.10;99.90;;;;;;5033524;28;20429;-65
2024/03/01 07:48:32;;;;;;;8.23;7.30;;;9.10;99.90;;;;;;5033135;28;20197;-67
2024/03/01 07:50:58;;;;;;;6.17;4.27;;;9.20;99.90;;;;;;5033520;28;20863;-71
2024/03/01 07:53:23;;;;;;;4.27;3.73;;;9.10;99.90;;;;;;5035156;28;20425;-72
2024/03/01 07:55:49;;;;;;;5.17;3.40;;;9.10;99.90;;;;;;5033856;28;20304;-70
2024/03/01 07:58:15;;;;;;;4.23;3.20;;;9.20;99.90;;;;;;5034546;28;20236;-68
2024/03/01 08:00:41;;;;;;;4.53;4.13;;;9.10;99.90;;;;;;5035408;28;20236;-69
2024/03/01 08:03:09;;;;;;;5.00;4.37;;;9.10;99.90;;;;;;5033976;28;20898;-67
2024/03/01 08:05:39;;;;;;;6.37;4.07;;;9.10;99.90;;;;;;5034307;28;20904;-69
2024/03/01 08:08:07;;;;;;;7.00;3.43;;;9.10;99.90;;;;;;5033640;28;20436;-67
2024/03/01 08:10:33;;;;;;;5.93;4.20;;;9.10;99.90;;;;;;5034379;28;20429;-71
2024/03/01 08:13:01;;;;;;;5.37;4.33;;;9.10;99.90;;;;;;5034267;28;20822;-72
2024/03/01 08:15:29;;;;;;;6.67;4.10;;;9.00;99.90;;;;;;5031469;28;20481;-66
2024/03/01 08:17:56;;;;;;;5.10;3.90;;;9.10;99.90;;;;;;5031336;28;20436;-70
2024/03/01 08:20:56;;;;;;;4.80;3.87;;;9.10;99.90;;;;;;5033640;28;20432;-69
2024/03/01 08:23:27;;;;;;;4.97;3.63;;;9.00;99.90;;;;;;5047626;28;20926;-71
2024/03/01 08:25:54;;;;;;;8.70;3.60;;;9.00;99.90;;;;;;5031862;28;20560;-68
2024/03/01 08:28:25;;;;;;;5.23;3.67;;;9.00;99.90;;;;;;5034797;28;20502;-71
2024/03/01 08:30:51;;;;;;;4.07;3.07;;;9.00;99.90;;;;;;5034208;28;20428;-68
2024/03/01 08:33:19;;;;;;;4.67;3.40;;;8.90;99.90;;;;;;5034212;28;20503;-73
2024/03/01 08:35:49;;;;;;;5.60;4.03;;;8.90;99.90;;;;;;5033778;28;20468;-72
2024/03/01 08:38:38;;;;;;;4.87;3.80;;;8.90;99.90;;;;;;5032895;28;20422;-69
2024/03/01 08:41:04;;;;;;;5.63;4.37;;;8.90;99.90;;;;;;5032042;28;20498;-70
2024/03/01 08:43:30;;;;;;;5.47;4.53;;;8.90;99.90;;;;;;5032916;28;20433;-71
2024/03/01 08:46:01;;;;;;;8.40;4.80;;;8.80;99.90;;;;;;5031598;28;20182;-70
2024/03/01 08:48:34;;;;;;;7.20;4.90;;;8.80;99.90;;;;;;5032230;28;20444;-70
2024/03/01 08:51:00;;;;;;;6.13;5.17;;;8.80;99.90;;;;;;5031585;28;20428;-76
2024/03/01 08:53:56;;;;;;;7.37;5.23;;;8.80;99.90;;;;;;5034156;28;20430;-68
2024/03/01 08:56:30;;;;;;;6.97;5.07;;;8.80;99.90;;;;;;5033254;28;20439;-68
2024/03/01 08:58:57;;;;;;;6.97;5.70;;;8.80;99.90;;;;;;5033033;28;21218;-68
2024/03/01 09:01:46;;;;;;;7.80;6.00;;;8.80;99.90;;;;;;5033005;28;20437;-71
2024/03/01 09:04:19;;;;;;;6.30;5.10;;;8.90;99.90;;;;;;5033250;28;21143;-68
2024/03/01 09:06:53;;;;;;;6.70;5.53;;;8.80;99.90;;;;;;5032796;28;20428;-69
2024/03/01 09:09:22;;;;;;;6.33;5.43;;;8.80;99.90;;;;;;5033850;28;20464;-71
2024/03/01 09:11:54;;;;;;;8.77;6.10;;;8.80;99.90;;;;;;5032391;28;20421;-68
2024/03/01 09:14:30;;;;;;;8.63;5.83;;;8.70;99.90;;;;;;5033665;28;20468;-66
2024/03/01 09:17:00;;;;;;;7.20;6.20;;;8.80;99.90;;;;;;5033467;28;20441;-70
2024/03/01 09:19:31;;;;;;;7.10;5.40;;;8.80;99.90;;;;;;5037989;28;20516;-67
2024/03/01 09:21:57;;;;;;;5.80;4.40;;;8.80;99.90;;;;;;5051673;28;20430;-67
2024/03/01 09:24:23;;;;;;;5.47;4.87;;;8.80;99.90;;;;;;5037158;28;20487;-69
2024/03/01 09:26:49;;;;;;;5.50;4.90;;;8.90;99.90;;;;;;5036609;28;20428;-66
2024/03/01 09:29:29;;;;;;;4.90;4.00;;;8.90;99.90;;;;;;5036072;28;20432;-73
2024/03/01 09:31:58;;;;;;;4.40;3.43;;;8.90;99.90;;;;;;5036549;28;20612;-70
2024/03/01 09:34:32;;;;;;;3.77;3.37;;;9.00;99.90;;;;;;5037051;28;20543;-70
2024/03/01 09:36:58;;;;;;;5.60;3.40;;;9.00;99.90;;;;;;5034608;28;20555;-71
2024/03/01 09:39:24;;;;;;;6.00;3.57;;;9.00;99.90;;;;;;5037728;28;20517;-69
2024/03/01 09:41:52;;;;;;;3.80;3.20;;;9.00;99.90;;;;;;5037174;28;20189;-67
2024/03/01 09:44:37;;;;;;;5.43;3.40;;;9.10;99.90;;;;;;5036756;28;20552;-74
2024/03/01 09:47:18;;;;;;;3.90;3.50;;;9.10;99.90;;;;;;5037111;28;20508;-68
2024/03/01 09:50:10;;;;;;;3.20;2.80;;;9.20;99.90;;;;;;5051642;28;20524;-72
2024/03/01 09:52:57;;;;;;;3.53;3.20;;;9.20;99.90;;;;;;5036553;28;20787;-69
2024/03/01 09:55:29;;;;;;;4.63;2.77;;;9.20;99.90;;;;;;5036571;28;20473;-70
2024/03/01 09:57:54;;;;;;;3.03;2.37;;;9.20;99.90;;;;;;5035902;28;20482;-68
2024/03/01 10:00:31;;;;;;;3.13;2.83;;;9.30;99.90;;;;;;5037185;28;20791;-72
2024/03/01 10:03:32;;;;;;;4.00;2.93;;;9.30;99.90;;;;;;5036622;28;20256;-70
2024/03/01 10:06:00;;;;;;;3.50;3.00;;;9.50;99.90;;;;;;5036958;28;20427;-71
2024/03/01 10:08:29;;;;;;;3.53;2.87;;;9.60;99.90;;;;;;5036758;28;21004;-70
2024/03/01 10:11:13;;;;;;;3.00;2.70;;;9.70;99.90;;;;;;5035757;28;20431;-67
2024/03/01 10:13:51;;;;;;;3.67;3.27;;;9.80;99.90;;;;;;5036584;28;20954;-71
2024/03/01 10:16:31;;;;;;;4.70;3.90;;;9.80;99.90;;;;;;5036616;28;20425;-69
2024/03/01 10:19:21;;;;;;;4.13;3.27;;;9.90;99.90;;;;;;5036574;28;21110;-69
2024/03/01 10:21:50;;;;;;;3.43;3.13;;;10.00;99.90;;;;;;5036411;28;20417;-69
2024/03/01 10:24:45;;;;;;;3.83;3.10;;;10.10;99.90;;;;;;5036903;28;20456;-70
2024/03/01 10:27:20;;;;;;;4.13;3.73;;;10.20;99.90;;;;;;5035909;28;20502;-67
2024/03/01 10:30:02;;;;;;;5.30;3.60;;;10.30;99.90;;;;;;5035418;28;20515;-73
2024/03/01 10:32:52;;;;;;;4.03;3.73;;;10.20;99.90;;;;;;5051684;28;20461;-71
2024/03/01 10:35:21;;;;;;;4.30;3.90;;;10.20;99.90;;;;;;5028054;28;20488;-71
2024/03/01 10:37:56;;;;;;;5.00;4.57;;;10.30;99.90;;;;;;5034023;28;20488;-75
2024/03/01 10:40:23;;;;;;;4.80;4.30;;;10.40;99.90;;;;;;5035950;28;20514;-69
2024/03/01 10:43:11;;;;;;;4.77;3.90;;;10.40;99.90;;;;;;5030009;28;20441;-71
2024/03/01 10:45:44;;;;;;;5.20;4.70;;;10.50;99.90;;;;;;5029718;28;20503;-65
2024/03/01 10:48:09;;;;;;;6.20;4.70;;;10.60;99.90;;;;;;5028390;28;20461;-70
2024/03/01 10:50:43;;;;;;;5.23;4.73;;;10.60;99.90;;;;;;5028845;28;21907;-69
2024/03/01 10:53:31;;;;;;;4.67;4.27;;;10.60;99.90;;;;;;5032422;28;20198;-71
2024/03/01 10:56:03;;;;;;;4.80;4.20;;;10.60;99.90;;;;;;5032064;28;20485;-70
2024/03/01 10:58:42;;;;;;;4.40;4.00;;;10.60;99.90;;;;;;5033934;28;20545;-73
2024/03/01 11:01:30;;;;;;;4.37;4.07;;;10.50;99.90;;;;;;5035410;28;20424;-66
2024/03/01 11:04:28;;;;;;;4.60;4.20;;;10.50;99.90;;;;;;5033768;28;20453;-70
2024/03/01 11:07:27;;;;;;;4.90;4.10;;;10.40;99.90;;;;;;5034366;28;20508;-71
2024/03/01 11:10:15;;;;;;;4.10;3.70;;;10.30;99.90;;;;;;5036568;28;20424;-69
2024/03/01 11:12:49;;;;;;;3.70;3.40;;;10.20;99.90;;;;;;5034001;28;20434;-70
2024/03/01 11:15:18;;;;;;;5.10;4.00;;;10.20;99.90;;;;;;5032006;28;21068;-72
2024/03/01 11:17:47;;;;;;;4.20;3.60;;;10.30;99.90;;;;;;5032864;28;20420;-67
2024/03/01 11:20:41;;;;;;;3.83;3.43;;;10.30;99.90;;;;;;5034931;28;21077;-67
2024/03/01 11:23:20;;;;;;;3.67;3.37;;;10.30;99.90;;;;;;5019635;28;20428;-71
2024/03/01 11:26:07;;;;;;;3.80;3.50;;;10.60;99.90;;;;;;5034454;28;20425;-71
2024/03/01 11:28:34;;;;;;;3.47;3.17;;;10.80;99.90;;;;;;5033657;28;20449;-69
2024/03/01 11:31:09;;;;;;;4.37;3.97;;;10.90;99.90;;;;;;5033798;28;20420;-69
2024/03/01 11:33:39;;;;;;;3.20;2.90;;;11.20;99.90;;;;;;5033712;28;20431;-71
2024/03/01 11:36:10;;;;;;;2.80;2.60;;;11.30;99.90;;;;;;5019126;28;20425;-71
2024/03/01 11:38:57;;;;;;;2.33;2.20;;;11.50;99.90;;;;;;5034112;28;20447;-70
2024/03/01 11:41:48;;;;;;;2.60;2.17;;;11.60;99.90;;;;;;5034716;28;20467;-71
2024/03/01 11:44:52;;;;;;;2.10;1.90;;;11.90;99.90;;;;;;5035879;28;20432;-69
2024/03/01 11:47:34;;;;;;;2.60;2.10;;;12.10;99.90;;;;;;5019226;28;20444;-72
2024/03/01 11:50:26;;;;;;;2.83;2.13;;;12.30;99.90;;;;;;5035105;28;20429;-69
2024/03/01 11:53:11;;;;;;;2.27;1.70;;;12.30;99.90;;;;;;5034836;28;20464;-69
2024/03/01 11:56:04;;;;;;;2.13;1.93;;;12.40;99.90;;;;;;5034789;28;20537;-71
2024/03/01 11:58:35;;;;;;;1.90;1.70;;;12.40;99.90;;;;;;5034412;28;20530;-71
2024/03/01 12:01:31;;;;;;;1.60;1.50;;;12.40;99.90;;;;;;5034861;28;20440;-69
2024/03/01 12:04:36;;;;;;;1.90;1.80;;;12.20;99.90;;;;;;5034838;28;20840;-70
2024/03/01 12:07:19;;;;;;;2.00;1.60;;;12.10;99.90;;;;;;5034599;28;20440;-68
2024/03/01 12:10:05;;;;;;;3.33;2.00;;;12.10;99.90;;;;;;5033698;28;20433;-66
2024/03/01 12:12:48;;;;;;;3.77;1.80;;;12.00;99.90;;;;;;5033299;28;20946;-70
2024/03/01 12:15:37;;;;;;;1.53;1.43;;;12.10;99.90;;;;;;5032762;28;21129;-72
2024/03/01 12:18:27;;;;;;;1.87;1.60;;;12.10;99.90;;;;;;5035064;28;20456;-73
2024/03/01 12:21:26;;;;;;;1.40;1.30;;;12.20;99.90;;;;;;5034279;28;20424;-71
2024/03/01 12:24:01;;;;;;;3.87;1.93;;;12.20;99.90;;;;;;5034096;28;20424;-71
2024/03/01 12:26:46;;;;;;;1.60;1.50;;;12.20;99.90;;;;;;5034440;28;20935;-71
2024/03/01 12:29:47;;;;;;;2.30;2.10;;;12.20;99.90;;;;;;5034546;28;20521;-71
2024/03/01 12:32:18;;;;;;;3.03;2.83;;;12.10;99.90;;;;;;5035135;28;20490;-72
2024/03/01 12:35:34;;;;;;;2.60;2.30;;;12.10;99.90;;;;;;5033990;28;20989;-72
2024/03/01 12:38:05;;;;;;;3.20;2.97;;;12.10;99.90;;;;;;4954044;28;20498;-71
2024/03/01 12:40:41;;;;;;;2.53;2.30;;;12.20;99.90;;;;;;5029247;28;20930;-66
2024/03/01 12:43:49;;;;;;;2.40;2.30;;;12.20;99.90;;;;;;5034850;28;20437;-67
2024/03/01 12:46:24;;;;;;;2.30;2.20;;;12.10;99.90;;;;;;5034680;28;20425;-72
2024/03/01 12:49:08;;;;;;;3.00;2.80;;;12.30;99.90;;;;;;5032636;28;20447;-72
2024/03/01 12:51:52;;;;;;;2.40;2.30;;;12.30;99.90;;;;;;5034161;28;20438;-70
2024/03/01 12:54:29;;;;;;;3.13;2.50;;;12.30;99.90;;;;;;5033903;28;20475;-66
2024/03/01 12:57:03;;;;;;;1.73;1.63;;;12.50;99.90;;;;;;5033821;28;20464;-75
2024/03/01 12:59:52;;;;;;;1.83;1.73;;;12.40;99.90;;;;;;5034153;28;20483;-72
2024/03/01 13:02:38;;;;;;;2.80;2.00;;;12.50;99.90;;;;;;5034055;28;20471;-70